Time;durP1;ratioP1;P1;durP2;ratioP2;P2;SDS_P1;SDS_P2;PMS_P1;PMS_P2;Temp;Humidity;BMP_temperature;BMP_pressure;BME280_temperature;BME280_humidity;BME280_pressure;Samples;Min_cycle;Max_cycle;Signal;HPM_P1;HPM_P2
2023/07/07 00:00:59;;;;;;;5.45;3.97;;;;;;;;;;5013877;28;93505;-73
2023/07/07 00:03:26;;;;;;;4.28;3.28;;;;;;;;;;5014550;28;92455;-73
2023/07/07 00:05:52;;;;;;;10.50;3.67;;;;;;;;;;5013819;28;93145;-73
2023/07/07 00:08:18;;;;;;;8.40;3.85;;;;;;;;;;5017726;28;95116;-73
2023/07/07 00:10:46;;;;;;;4.57;3.65;;;;;;;;;;5014574;28;93198;-72
2023/07/07 00:13:13;;;;;;;4.53;3.60;;;;;;;;;;5015010;28;93284;-73
2023/07/07 00:15:46;;;;;;;9.40;4.03;;;;;;;;;;5014289;28;92497;-73
2023/07/07 00:18:26;;;;;;;8.05;3.60;;;;;;;;;;5015057;28;94522;-73
2023/07/07 00:20:56;;;;;;;3.47;3.15;;;;;;;;;;5012963;28;96909;-72
2023/07/07 00:23:24;;;;;;;6.55;3.50;;;;;;;;;;5014524;28;92528;-73
2023/07/07 00:26:07;;;;;;;7.30;3.40;;;;;;;;;;5014080;28;92987;-73
2023/07/07 00:28:34;;;;;;;5.68;3.15;;;;;;;;;;5017321;28;93355;-73
2023/07/07 00:31:01;;;;;;;5.15;3.40;;;;;;;;;;5014493;28;94450;-72
2023/07/07 00:33:27;;;;;;;3.70;3.13;;;;;;;;;;5014199;28;93029;-72
2023/07/07 00:35:54;;;;;;;4.82;3.58;;;;;;;;;;5014305;28;92435;-72
2023/07/07 00:38:20;;;;;;;6.28;3.60;;;;;;;;;;5014562;28;93145;-73
2023/07/07 00:40:46;;;;;;;4.63;3.20;;;;;;;;;;5014420;28;94466;-73
2023/07/07 00:43:14;;;;;;;7.18;3.83;;;;;;;;;;5014062;28;92417;-73
2023/07/07 00:45:40;;;;;;;3.92;3.42;;;;;;;;;;5012468;28;94774;-72
2023/07/07 00:48:09;;;;;;;6.38;3.60;;;;;;;;;;5014047;28;93510;-73
2023/07/07 00:50:37;;;;;;;4.32;3.40;;;;;;;;;;5017152;28;92436;-72
2023/07/07 00:53:04;;;;;;;8.05;3.80;;;;;;;;;;5013988;28;94479;-73
2023/07/07 00:55:33;;;;;;;8.02;3.63;;;;;;;;;;5013912;28;92539;-73
2023/07/07 00:58:01;;;;;;;4.35;3.60;;;;;;;;;;5013859;28;92425;-72
2023/07/07 01:00:28;;;;;;;3.92;3.08;;;;;;;;;;5013922;28;93537;-73
2023/07/07 01:02:56;;;;;;;6.32;3.30;;;;;;;;;;5014705;28;91685;-72
2023/07/07 01:05:25;;;;;;;11.68;3.90;;;;;;;;;;5014065;28;92409;-72
2023/07/07 01:07:52;;;;;;;4.70;2.95;;;;;;;;;;5013562;28;93661;-73
2023/07/07 01:10:19;;;;;;;7.68;3.33;;;;;;;;;;5012236;28;94954;-72
2023/07/07 01:12:47;;;;;;;5.68;3.67;;;;;;;;;;5019365;28;96700;-73
2023/07/07 01:15:13;;;;;;;4.68;3.20;;;;;;;;;;5017525;28;92602;-72
2023/07/07 01:17:58;;;;;;;10.40;2.92;;;;;;;;;;5017329;28;93288;-72
2023/07/07 01:20:45;;;;;;;7.28;3.60;;;;;;;;;;5016998;28;93694;-73
2023/07/07 01:23:20;;;;;;;4.35;3.10;;;;;;;;;;5012801;28;92716;-72
2023/07/07 01:26:02;;;;;;;6.55;3.60;;;;;;;;;;5016982;28;92407;-72
2023/07/07 01:28:34;;;;;;;6.55;3.63;;;;;;;;;;5017429;28;92948;-72
2023/07/07 01:31:19;;;;;;;5.32;3.20;;;;;;;;;;5017031;28;92444;-73
2023/07/07 01:33:46;;;;;;;3.17;2.75;;;;;;;;;;5017190;28;94218;-72
2023/07/07 01:36:13;;;;;;;3.72;3.28;;;;;;;;;;5018588;28;97241;-73
2023/07/07 01:38:41;;;;;;;3.47;3.17;;;;;;;;;;5016886;28;95748;-72
2023/07/07 01:41:17;;;;;;;6.13;3.13;;;;;;;;;;5016656;28;93490;-72
2023/07/07 01:43:45;;;;;;;3.42;3.13;;;;;;;;;;5016841;28;92426;-72
2023/07/07 01:46:35;;;;;;;5.00;3.17;;;;;;;;;;5017062;28;92471;-73
2023/07/07 01:49:09;;;;;;;5.45;3.33;;;;;;;;;;4993799;28;93439;-72
2023/07/07 01:51:39;;;;;;;4.82;3.28;;;;;;;;;;4994046;28;92650;-72
2023/07/07 01:54:07;;;;;;;5.80;3.50;;;;;;;;;;4994476;28;93284;-72
2023/07/07 01:56:33;;;;;;;8.43;3.95;;;;;;;;;;4994189;28;93516;-72
2023/07/07 01:59:00;;;;;;;5.20;4.03;;;;;;;;;;4997846;28;92624;-72
2023/07/07 02:01:27;;;;;;;4.80;3.83;;;;;;;;;;4992330;28;95942;-72
2023/07/07 02:03:54;;;;;;;4.63;3.70;;;;;;;;;;4994038;28;92614;-72
2023/07/07 02:06:20;;;;;;;5.85;4.15;;;;;;;;;;4993653;28;93260;-73
2023/07/07 02:08:46;;;;;;;9.00;4.60;;;;;;;;;;4977542;28;93493;-72
2023/07/07 02:11:13;;;;;;;6.28;4.32;;;;;;;;;;4993955;28;92478;-72
2023/07/07 02:13:39;;;;;;;9.60;5.10;;;;;;;;;;4993635;28;93617;-72
2023/07/07 02:16:07;;;;;;;5.30;4.78;;;;;;;;;;4992534;28;93432;-72
2023/07/07 02:18:37;;;;;;;11.93;4.53;;;;;;;;;;4974097;28;91760;-72
2023/07/07 02:21:05;;;;;;;9.65;4.80;;;;;;;;;;4961199;28;92488;-72
2023/07/07 02:23:32;;;;;;;9.40;4.63;;;;;;;;;;4957200;28;92571;-72
2023/07/07 02:25:58;;;;;;;9.10;5.38;;;;;;;;;;4981296;28;94926;-72
2023/07/07 02:28:25;;;;;;;6.47;4.85;;;;;;;;;;4994621;28;93614;-72
2023/07/07 02:30:54;;;;;;;12.60;5.43;;;;;;;;;;4996042;28;92516;-72
2023/07/07 02:33:31;;;;;;;9.18;4.63;;;;;;;;;;4995847;28;94371;-72
2023/07/07 02:36:04;;;;;;;8.40;5.65;;;;;;;;;;4996262;28;94587;-72
2023/07/07 02:38:31;;;;;;;5.60;5.07;;;;;;;;;;4995958;28;92483;-72
2023/07/07 02:40:57;;;;;;;10.98;5.78;;;;;;;;;;4999075;28;93168;-72
2023/07/07 02:43:24;;;;;;;6.60;5.85;;;;;;;;;;4996386;28;92218;-72
2023/07/07 02:45:51;;;;;;;6.05;5.45;;;;;;;;;;4995500;28;92464;-73
2023/07/07 02:48:19;;;;;;;8.52;5.63;;;;;;;;;;5015817;28;93234;-72
2023/07/07 02:50:58;;;;;;;12.07;6.07;;;;;;;;;;5014326;28;94854;-72
2023/07/07 02:53:27;;;;;;;8.75;5.80;;;;;;;;;;5016027;28;98943;-72
2023/07/07 02:55:54;;;;;;;8.68;5.93;;;;;;;;;;5015818;28;94621;-72
2023/07/07 02:58:20;;;;;;;16.60;5.82;;;;;;;;;;5015662;28;92469;-72
2023/07/07 03:00:47;;;;;;;10.90;6.70;;;;;;;;;;5015845;28;93250;-72
2023/07/07 03:03:13;;;;;;;10.98;5.72;;;;;;;;;;5018673;28;94514;-72
2023/07/07 03:05:40;;;;;;;9.85;5.75;;;;;;;;;;5015681;28;94049;-72
2023/07/07 03:08:06;;;;;;;7.68;5.68;;;;;;;;;;5016149;28;93573;-72
2023/07/07 03:10:34;;;;;;;12.70;5.90;;;;;;;;;;5015470;28;92669;-72
2023/07/07 03:13:01;;;;;;;11.98;7.25;;;;;;;;;;5015307;28;93320;-72
2023/07/07 03:15:29;;;;;;;8.52;6.03;;;;;;;;;;5013921;28;96190;-72
2023/07/07 03:17:56;;;;;;;8.93;5.85;;;;;;;;;;5015693;28;92489;-72
2023/07/07 03:20:26;;;;;;;11.75;6.03;;;;;;;;;;5014340;28;93233;-72
2023/07/07 03:22:53;;;;;;;6.95;5.00;;;;;;;;;;5015117;28;93729;-72
2023/07/07 03:25:20;;;;;;;8.73;5.40;;;;;;;;;;5018281;28;92536;-72
2023/07/07 03:27:47;;;;;;;7.60;5.50;;;;;;;;;;5014864;28;92416;-72
2023/07/07 03:30:14;;;;;;;8.43;5.53;;;;;;;;;;5014859;28;92506;-72
2023/07/07 03:32:40;;;;;;;9.68;5.80;;;;;;;;;;5015608;28;94197;-72
2023/07/07 03:35:07;;;;;;;9.00;5.65;;;;;;;;;;5013775;28;93687;-72
2023/07/07 03:37:33;;;;;;;7.97;5.80;;;;;;;;;;5013679;28;92470;-72
2023/07/07 03:40:00;;;;;;;8.45;6.03;;;;;;;;;;5012213;28;94899;-72
2023/07/07 03:42:26;;;;;;;8.27;5.95;;;;;;;;;;5015107;28;94498;-72
2023/07/07 03:44:52;;;;;;;11.25;6.13;;;;;;;;;;5014623;28;92468;-72
2023/07/07 03:47:19;;;;;;;9.50;5.43;;;;;;;;;;5018047;28;93171;-72
2023/07/07 03:49:46;;;;;;;11.40;5.50;;;;;;;;;;5014932;28;92530;-72
2023/07/07 03:52:12;;;;;;;9.23;6.15;;;;;;;;;;5015041;28;94017;-72
2023/07/07 03:54:40;;;;;;;9.25;5.07;;;;;;;;;;5014563;28;93297;-72
2023/07/07 03:57:07;;;;;;;6.72;5.32;;;;;;;;;;5015165;28;91714;-72
2023/07/07 03:59:33;;;;;;;7.95;5.43;;;;;;;;;;5014884;28;93625;-72
2023/07/07 04:01:59;;;;;;;8.23;5.43;;;;;;;;;;5014429;28;93558;-72
2023/07/07 04:04:26;;;;;;;7.93;5.00;;;;;;;;;;5011780;28;95558;-72
2023/07/07 04:06:56;;;;;;;9.15;4.95;;;;;;;;;;5014521;28;95706;-72
2023/07/07 04:09:23;;;;;;;6.13;4.60;;;;;;;;;;5017396;28;93409;-72
2023/07/07 04:11:49;;;;;;;14.85;5.20;;;;;;;;;;5014567;28;92792;-72
2023/07/07 04:14:15;;;;;;;5.97;5.00;;;;;;;;;;5014051;28;93374;-72
2023/07/07 04:16:42;;;;;;;8.52;5.47;;;;;;;;;;5014730;28;92842;-72
2023/07/07 04:19:08;;;;;;;6.50;5.28;;;;;;;;;;5014190;28;93423;-71
2023/07/07 04:21:35;;;;;;;7.28;5.40;;;;;;;;;;5014353;28;92767;-72
2023/07/07 04:24:02;;;;;;;5.80;4.60;;;;;;;;;;5014399;28;92644;-72
2023/07/07 04:26:29;;;;;;;7.50;5.38;;;;;;;;;;5013631;28;93186;-72
2023/07/07 04:28:57;;;;;;;7.07;5.43;;;;;;;;;;5012648;28;98793;-71
2023/07/07 04:31:24;;;;;;;8.55;4.90;;;;;;;;;;5017156;28;92443;-72
2023/07/07 04:33:50;;;;;;;7.13;4.63;;;;;;;;;;5014077;28;93772;-72
2023/07/07 04:36:17;;;;;;;6.60;5.03;;;;;;;;;;5013972;28;92453;-72
2023/07/07 04:38:44;;;;;;;7.72;5.05;;;;;;;;;;5014246;28;93203;-72
2023/07/07 04:41:16;;;;;;;8.13;5.10;;;;;;;;;;5013560;28;92665;-72
2023/07/07 04:43:44;;;;;;;6.07;5.47;;;;;;;;;;5014025;28;92449;-72
2023/07/07 04:46:11;;;;;;;6.50;5.70;;;;;;;;;;5013884;28;92154;-72
2023/07/07 04:48:39;;;;;;;5.40;4.78;;;;;;;;;;5012730;28;94528;-72
2023/07/07 04:51:07;;;;;;;11.07;5.60;;;;;;;;;;5017097;28;92417;-72
2023/07/07 04:53:34;;;;;;;7.05;5.80;;;;;;;;;;5012322;28;94934;-72
2023/07/07 04:56:02;;;;;;;8.90;6.43;;;;;;;;;;5013795;28;92437;-72
2023/07/07 04:58:28;;;;;;;10.57;6.40;;;;;;;;;;5013892;28;93307;-72
2023/07/07 05:01:08;;;;;;;14.40;6.90;;;;;;;;;;5013488;28;93960;-72
2023/07/07 05:03:35;;;;;;;13.00;7.00;;;;;;;;;;5013884;28;92736;-72
2023/07/07 05:06:03;;;;;;;10.65;6.30;;;;;;;;;;5013607;28;93417;-72
2023/07/07 05:08:33;;;;;;;12.18;7.32;;;;;;;;;;5013617;28;94653;-71
2023/07/07 05:11:00;;;;;;;13.13;7.07;;;;;;;;;;5014139;28;91743;-72
2023/07/07 05:13:27;;;;;;;10.98;7.40;;;;;;;;;;5016337;28;92651;-71
2023/07/07 05:16:00;;;;;;;13.15;6.95;;;;;;;;;;5013302;28;92490;-72
2023/07/07 05:18:27;;;;;;;13.60;7.72;;;;;;;;;;4992232;28;94813;-71
2023/07/07 05:20:53;;;;;;;17.98;8.27;;;;;;;;;;4993446;28;93581;-72
2023/07/07 05:23:20;;;;;;;11.80;7.80;;;;;;;;;;4993675;28;93959;-72
2023/07/07 05:25:46;;;;;;;15.60;7.38;;;;;;;;;;4993446;28;93633;-71
2023/07/07 05:28:12;;;;;;;13.45;6.78;;;;;;;;;;4992786;28;93490;-72
2023/07/07 05:30:39;;;;;;;9.85;6.80;;;;;;;;;;4993469;28;92489;-71
2023/07/07 05:33:05;;;;;;;20.10;8.10;;;;;;;;;;4993227;28;93262;-72
2023/07/07 05:35:32;;;;;;;15.10;7.07;;;;;;;;;;4996383;28;92723;-72
2023/07/07 05:38:00;;;;;;;18.45;7.60;;;;;;;;;;4993643;28;92632;-72
2023/07/07 05:40:27;;;;;;;11.20;6.90;;;;;;;;;;4993198;28;93763;-72
2023/07/07 05:42:53;;;;;;;19.55;6.90;;;;;;;;;;4991651;28;95288;-72
2023/07/07 05:45:21;;;;;;;15.13;7.53;;;;;;;;;;4993034;28;95618;-72
2023/07/07 05:47:47;;;;;;;15.98;7.13;;;;;;;;;;5008677;28;92530;-72
2023/07/07 05:50:14;;;;;;;10.63;6.43;;;;;;;;;;5013096;28;92501;-72
2023/07/07 05:52:40;;;;;;;14.82;7.40;;;;;;;;;;5011704;28;93079;-72
2023/07/07 05:55:22;;;;;;;19.40;7.13;;;;;;;;;;5012822;28;93639;-72
2023/07/07 05:57:49;;;;;;;19.55;6.63;;;;;;;;;;5016412;28;92490;-72
2023/07/07 06:00:16;;;;;;;18.85;7.18;;;;;;;;;;5016746;28;91743;-72
2023/07/07 06:02:42;;;;;;;12.82;7.20;;;;;;;;;;5016503;28;92492;-71
2023/07/07 06:05:09;;;;;;;11.38;7.00;;;;;;;;;;5016364;28;92797;-72
2023/07/07 06:07:35;;;;;;;9.02;5.78;;;;;;;;;;5014275;28;95823;-71
2023/07/07 06:10:02;;;;;;;10.43;6.40;;;;;;;;;;5016510;28;92431;-71
2023/07/07 06:12:29;;;;;;;8.40;4.82;;;;;;;;;;5016237;28;94444;-72
2023/07/07 06:14:55;;;;;;;12.02;6.50;;;;;;;;;;5016133;28;93212;-73
2023/07/07 06:17:22;;;;;;;10.05;5.32;;;;;;;;;;5016541;28;92853;-72
2023/07/07 06:19:48;;;;;;;14.80;5.63;;;;;;;;;;5019317;28;93239;-72
2023/07/07 06:22:14;;;;;;;13.25;5.60;;;;;;;;;;5016113;28;92399;-72
2023/07/07 06:24:41;;;;;;;8.70;5.10;;;;;;;;;;5016555;28;94157;-72
2023/07/07 06:27:07;;;;;;;12.27;5.25;;;;;;;;;;5015429;28;93486;-72
2023/07/07 06:29:35;;;;;;;12.57;5.60;;;;;;;;;;5016193;28;92387;-72
2023/07/07 06:32:01;;;;;;;11.07;5.00;;;;;;;;;;5014550;28;94738;-72
2023/07/07 06:34:28;;;;;;;9.70;5.20;;;;;;;;;;5015999;28;92408;-72
2023/07/07 06:36:54;;;;;;;21.17;5.60;;;;;;;;;;5015762;28;92545;-72
2023/07/07 06:39:20;;;;;;;9.65;4.75;;;;;;;;;;5018686;28;93517;-73
2023/07/07 06:41:47;;;;;;;5.30;4.32;;;;;;;;;;5016262;28;92410;-73
2023/07/07 06:44:13;;;;;;;14.80;5.53;;;;;;;;;;5015726;28;94228;-73
2023/07/07 06:46:40;;;;;;;12.55;4.70;;;;;;;;;;5015793;28;93565;-72
2023/07/07 06:49:07;;;;;;;7.43;5.13;;;;;;;;;;5016059;28;91701;-73
2023/07/07 06:51:33;;;;;;;13.75;4.75;;;;;;;;;;5015603;28;92611;-72
2023/07/07 06:54:00;;;;;;;13.85;4.38;;;;;;;;;;5015437;28;93427;-73
2023/07/07 06:56:26;;;;;;;10.10;3.60;;;;;;;;;;5013902;28;94840;-73
2023/07/07 06:58:52;;;;;;;9.27;3.28;;;;;;;;;;5015595;28;95944;-73
2023/07/07 07:01:19;;;;;;;8.25;3.13;;;;;;;;;;5018482;28;93513;-73
2023/07/07 07:03:45;;;;;;;6.47;2.50;;;;;;;;;;5014480;28;93132;-73
2023/07/07 07:06:12;;;;;;;7.38;2.53;;;;;;;;;;5015038;28;93404;-73
2023/07/07 07:08:38;;;;;;;7.55;3.22;;;;;;;;;;5015590;28;92713;-73
2023/07/07 07:11:06;;;;;;;19.90;2.63;;;;;;;;;;5014965;28;92449;-73
2023/07/07 07:13:33;;;;;;;5.60;2.63;;;;;;;;;;5015828;28;92749;-73
2023/07/07 07:15:59;;;;;;;12.75;3.10;;;;;;;;;;5015581;28;92605;-73
2023/07/07 07:18:26;;;;;;;5.55;2.70;;;;;;;;;;5014963;28;93180;-73
2023/07/07 07:20:54;;;;;;;6.80;2.35;;;;;;;;;;5013328;28;96013;-73
2023/07/07 07:23:21;;;;;;;8.90;2.80;;;;;;;;;;5018073;28;92446;-73
2023/07/07 07:25:48;;;;;;;5.47;2.22;;;;;;;;;;5015156;28;93448;-73
2023/07/07 07:28:15;;;;;;;4.82;2.30;;;;;;;;;;5015073;28;92545;-73
2023/07/07 07:30:42;;;;;;;9.07;2.38;;;;;;;;;;5015045;28;93289;-73
2023/07/07 07:33:18;;;;;;;8.48;2.20;;;;;;;;;;5014652;28;93380;-73
2023/07/07 07:35:44;;;;;;;11.35;2.60;;;;;;;;;;5015109;28;92438;-73
2023/07/07 07:38:11;;;;;;;6.35;1.85;;;;;;;;;;5015226;28;93736;-73
2023/07/07 07:40:37;;;;;;;4.40;2.28;;;;;;;;;;5014667;28;93918;-73
2023/07/07 07:43:04;;;;;;;6.15;2.55;;;;;;;;;;5014996;28;92518;-74
2023/07/07 07:45:31;;;;;;;6.63;2.22;;;;;;;;;;5016122;28;94775;-73
2023/07/07 07:47:57;;;;;;;10.35;2.33;;;;;;;;;;5014911;28;92820;-74
2023/07/07 07:50:24;;;;;;;6.03;2.00;;;;;;;;;;5014889;28;93141;-73
2023/07/07 07:52:50;;;;;;;6.28;2.15;;;;;;;;;;5014379;28;93464;-73
2023/07/07 07:55:17;;;;;;;6.95;2.47;;;;;;;;;;5015003;28;92485;-73
2023/07/07 07:57:43;;;;;;;7.85;2.55;;;;;;;;;;5014615;28;93135;-74
2023/07/07 08:00:10;;;;;;;5.10;1.95;;;;;;;;;;5014540;28;93590;-74
2023/07/07 08:02:37;;;;;;;10.88;2.58;;;;;;;;;;5014977;28;92229;-73
2023/07/07 08:05:03;;;;;;;11.32;2.58;;;;;;;;;;5014670;28;92639;-74
2023/07/07 08:07:30;;;;;;;5.97;2.20;;;;;;;;;;5017306;28;93852;-74
2023/07/07 08:09:56;;;;;;;5.65;1.90;;;;;;;;;;5012898;28;94757;-74
2023/07/07 08:12:23;;;;;;;7.25;2.35;;;;;;;;;;5014298;28;93485;-74
2023/07/07 08:14:50;;;;;;;4.20;2.10;;;;;;;;;;5014281;28;92438;-74
2023/07/07 08:17:16;;;;;;;6.93;1.90;;;;;;;;;;5014624;28;93057;-74
2023/07/07 08:19:43;;;;;;;10.82;2.10;;;;;;;;;;5014312;28;93777;-74
2023/07/07 08:22:14;;;;;;;12.15;2.40;;;;;;;;;;5013398;28;92490;-74
2023/07/07 08:24:43;;;;;;;9.02;2.13;;;;;;;;;;5014214;28;93342;-74
2023/07/07 08:27:10;;;;;;;8.57;1.92;;;;;;;;;;5013921;28;93242;-74
2023/07/07 08:29:40;;;;;;;4.75;2.03;;;;;;;;;;5017633;28;92525;-74
2023/07/07 08:32:07;;;;;;;4.15;2.20;;;;;;;;;;5013986;28;93439;-74
2023/07/07 08:34:33;;;;;;;3.30;1.90;;;;;;;;;;5012631;28;94920;-74
2023/07/07 08:37:19;;;;;;;11.48;2.47;;;;;;;;;;5012949;28;95448;-74
2023/07/07 08:39:46;;;;;;;8.00;2.03;;;;;;;;;;5012275;28;93479;-74
2023/07/07 08:42:19;;;;;;;6.45;2.08;;;;;;;;;;5014412;28;92426;-74
2023/07/07 08:44:45;;;;;;;8.60;2.03;;;;;;;;;;5013804;28;93612;-74
2023/07/07 08:47:27;;;;;;;5.77;1.83;;;;;;;;;;5013861;28;94261;-74
2023/07/07 08:49:58;;;;;;;3.30;2.00;;;;;;;;;;5017340;28;92473;-74
2023/07/07 08:52:34;;;;;;;4.97;1.92;;;;;;;;;;5014147;28;94077;-74
2023/07/07 08:55:04;;;;;;;4.05;2.30;;;;;;;;;;5013942;28;92472;-74
2023/07/07 08:57:32;;;;;;;3.30;1.88;;;;;;;;;;5013825;28;93356;-74
2023/07/07 09:00:17;;;;;;;8.32;2.15;;;;;;;;;;5012216;28;96059;-74
2023/07/07 09:02:43;;;;;;;4.97;2.50;;;;;;;;;;5013410;28;92421;-73
2023/07/07 09:05:24;;;;;;;3.95;1.80;;;;;;;;;;5013859;28;92991;-74
2023/07/07 09:07:59;;;;;;;5.70;1.92;;;;;;;;;;5013614;28;94496;-74
2023/07/07 09:10:34;;;;;;;4.80;2.00;;;;;;;;;;5013727;28;92392;-74
2023/07/07 09:13:12;;;;;;;6.20;2.30;;;;;;;;;;5016439;28;93667;-73
2023/07/07 09:15:40;;;;;;;6.13;2.42;;;;;;;;;;5014247;28;92386;-74
2023/07/07 09:18:25;;;;;;;6.53;2.00;;;;;;;;;;5014024;28;93133;-73
2023/07/07 09:20:59;;;;;;;4.72;1.95;;;;;;;;;;5013474;28;93502;-74
2023/07/07 09:23:28;;;;;;;10.48;2.22;;;;;;;;;;5013583;28;92456;-74
2023/07/07 09:26:00;;;;;;;3.10;2.10;;;;;;;;;;5011754;28;95170;-74
2023/07/07 09:28:28;;;;;;;2.78;1.60;;;;;;;;;;5013237;28;93562;-73
2023/07/07 09:31:09;;;;;;;3.10;2.50;;;;;;;;;;5013575;28;92482;-74
2023/07/07 09:33:35;;;;;;;6.05;2.20;;;;;;;;;;5015864;28;94193;-73
2023/07/07 09:36:37;;;;;;;6.05;2.03;;;;;;;;;;5019903;28;94501;-74
2023/07/07 09:39:22;;;;;;;2.70;2.00;;;;;;;;;;4994630;28;94831;-73
2023/07/07 09:42:07;;;;;;;4.70;2.28;;;;;;;;;;4993923;28;94173;-74
2023/07/07 09:44:45;;;;;;;3.20;1.88;;;;;;;;;;4994141;28;91892;-74
2023/07/07 09:47:23;;;;;;;7.63;2.00;;;;;;;;;;4984133;28;93385;-74
2023/07/07 09:50:02;;;;;;;3.88;1.75;;;;;;;;;;4958031;28;93777;-74
2023/07/07 09:52:45;;;;;;;5.07;2.03;;;;;;;;;;4972926;28;94877;-74
2023/07/07 09:55:14;;;;;;;2.67;1.80;;;;;;;;;;4974148;28;95685;-74
2023/07/07 09:58:07;;;;;;;6.67;1.83;;;;;;;;;;4973943;28;94186;-74
2023/07/07 10:00:34;;;;;;;6.05;2.22;;;;;;;;;;4973505;28;92648;-73
2023/07/07 10:03:44;;;;;;;2.97;1.70;;;;;;;;;;4973833;28;94835;-73
2023/07/07 10:06:23;;;;;;;3.30;1.67;;;;;;;;;;4952173;28;93080;-74
2023/07/07 10:08:50;;;;;;;4.90;2.30;;;;;;;;;;4957881;28;93401;-74
2023/07/07 10:11:24;;;;;;;7.00;2.38;;;;;;;;;;4982622;28;93872;-74
2023/07/07 10:13:55;;;;;;;4.82;2.17;;;;;;;;;;5011879;28;92785;-74
2023/07/07 10:16:36;;;;;;;5.50;1.98;;;;;;;;;;5016174;28;93069;-74
2023/07/07 10:19:04;;;;;;;3.78;1.77;;;;;;;;;;5014628;28;95526;-74
2023/07/07 10:21:30;;;;;;;6.68;2.20;;;;;;;;;;5016197;28;92376;-74
2023/07/07 10:23:57;;;;;;;5.05;2.33;;;;;;;;;;5018799;28;93279;-74
2023/07/07 10:26:23;;;;;;;4.05;1.75;;;;;;;;;;5015884;28;92524;-74
2023/07/07 10:28:52;;;;;;;4.22;2.15;;;;;;;;;;5015108;28;93888;-73
2023/07/07 10:31:18;;;;;;;5.10;2.08;;;;;;;;;;5015890;28;93505;-74
2023/07/07 10:33:47;;;;;;;3.85;1.63;;;;;;;;;;5015899;28;92608;-73
2023/07/07 10:36:17;;;;;;;5.45;2.03;;;;;;;;;;5016572;28;93176;-73
2023/07/07 10:38:46;;;;;;;4.82;1.90;;;;;;;;;;5015373;28;93644;-74
2023/07/07 10:41:22;;;;;;;3.90;2.20;;;;;;;;;;5016081;28;92439;-74
2023/07/07 10:43:48;;;;;;;3.33;2.00;;;;;;;;;;5013869;28;94902;-74
2023/07/07 10:46:15;;;;;;;5.57;1.95;;;;;;;;;;5017854;28;93823;-74
2023/07/07 10:48:44;;;;;;;7.28;2.63;;;;;;;;;;5015432;28;93586;-74
2023/07/07 10:51:26;;;;;;;8.80;2.15;;;;;;;;;;5015441;28;94705;-74
2023/07/07 10:54:00;;;;;;;4.00;2.25;;;;;;;;;;5015908;28;92553;-74
2023/07/07 10:56:32;;;;;;;3.67;2.17;;;;;;;;;;5015728;28;93035;-74
2023/07/07 10:59:01;;;;;;;7.07;2.17;;;;;;;;;;5015436;28;93824;-74
2023/07/07 11:01:27;;;;;;;6.13;2.10;;;;;;;;;;5016119;28;91732;-74
2023/07/07 11:03:57;;;;;;;4.90;2.08;;;;;;;;;;5015684;28;93405;-73
2023/07/07 11:06:33;;;;;;;4.20;2.38;;;;;;;;;;5018502;28;94589;-74
2023/07/07 11:09:08;;;;;;;3.08;2.20;;;;;;;;;;5013794;28;95125;-74
2023/07/07 11:11:43;;;;;;;5.85;2.05;;;;;;;;;;5015061;28;93615;-74
2023/07/07 11:14:22;;;;;;;7.75;2.22;;;;;;;;;;5013713;28;92532;-74
2023/07/07 11:16:51;;;;;;;3.58;1.90;;;;;;;;;;5015782;28;93148;-74
2023/07/07 11:19:20;;;;;;;3.67;2.00;;;;;;;;;;5013990;28;92430;-74
2023/07/07 11:22:08;;;;;;;4.68;2.28;;;;;;;;;;5015348;28;92837;-74
2023/07/07 11:24:40;;;;;;;5.38;2.67;;;;;;;;;;5014840;28;93488;-74
2023/07/07 11:27:28;;;;;;;4.47;2.28;;;;;;;;;;5013737;28;92485;-74
2023/07/07 11:29:54;;;;;;;4.30;2.00;;;;;;;;;;5018195;28;92918;-74
2023/07/07 11:32:26;;;;;;;7.00;2.15;;;;;;;;;;5014890;28;93521;-74
2023/07/07 11:34:57;;;;;;;4.03;2.15;;;;;;;;;;5013393;28;94854;-74
2023/07/07 11:37:30;;;;;;;2.45;1.83;;;;;;;;;;5014958;28;95423;-74
2023/07/07 11:40:05;;;;;;;6.28;2.63;;;;;;;;;;5014729;28;93536;-74
2023/07/07 11:42:51;;;;;;;5.10;2.05;;;;;;;;;;5013765;28;92465;-74
2023/07/07 11:45:17;;;;;;;5.35;2.38;;;;;;;;;;5014566;28;93182;-74
2023/07/07 11:47:56;;;;;;;4.40;2.45;;;;;;;;;;5014896;28;93373;-74
2023/07/07 11:50:41;;;;;;;7.57;1.90;;;;;;;;;;5014964;28;92434;-74
2023/07/07 11:53:27;;;;;;;4.82;2.42;;;;;;;;;;5017963;28;93790;-74
2023/07/07 11:55:53;;;;;;;6.43;2.63;;;;;;;;;;5012398;28;92546;-74
2023/07/07 11:58:23;;;;;;;3.95;1.73;;;;;;;;;;5014979;28;96143;-74
2023/07/07 12:00:52;;;;;;;5.32;1.83;;;;;;;;;;5012842;28;94875;-73
2023/07/07 12:03:38;;;;;;;10.15;2.65;;;;;;;;;;5014779;28;92415;-74
2023/07/07 12:06:12;;;;;;;4.40;1.95;;;;;;;;;;5013010;28;93073;-74
2023/07/07 12:08:44;;;;;;;5.72;2.50;;;;;;;;;;5014353;28;93688;-74
2023/07/07 12:11:13;;;;;;;3.35;2.20;;;;;;;;;;5014560;28;92430;-74
2023/07/07 12:14:00;;;;;;;3.45;2.08;;;;;;;;;;5014372;28;93235;-74
2023/07/07 12:16:29;;;;;;;4.30;2.50;;;;;;;;;;5013075;28;93568;-74
2023/07/07 12:19:10;;;;;;;4.03;2.10;;;;;;;;;;5014963;28;93222;-74
2023/07/07 12:21:37;;;;;;;11.18;2.67;;;;;;;;;;5014074;28;93836;-74
2023/07/07 12:24:10;;;;;;;5.53;2.10;;;;;;;;;;5014341;28;92561;-74
2023/07/07 12:26:40;;;;;;;3.95;1.92;;;;;;;;;;5011370;28;95096;-74
2023/07/07 12:29:10;;;;;;;4.20;2.38;;;;;;;;;;5013517;28;93723;-74
2023/07/07 12:31:36;;;;;;;6.95;2.22;;;;;;;;;;5014045;28;92454;-74
2023/07/07 12:34:18;;;;;;;4.53;2.45;;;;;;;;;;5014365;28;93347;-74
2023/07/07 12:36:45;;;;;;;3.45;2.20;;;;;;;;;;5013840;28;93587;-74
2023/07/07 12:39:12;;;;;;;2.88;2.20;;;;;;;;;;5016927;28;92786;-74
2023/07/07 12:41:38;;;;;;;6.53;2.55;;;;;;;;;;5013559;28;93657;-74
2023/07/07 12:44:05;;;;;;;6.03;2.22;;;;;;;;;;5012902;28;92082;-74
2023/07/07 12:46:33;;;;;;;10.32;2.70;;;;;;;;;;5014191;28;92906;-74
2023/07/07 12:49:03;;;;;;;5.97;2.60;;;;;;;;;;5013857;28;93878;-74
2023/07/07 12:51:29;;;;;;;;;;;;;;;;;;5012647;28;94820;-74
2023/07/07 12:53:56;;;;;;;3.75;2.08;;;;;;;;;;5014720;28;126312;-74
2023/07/07 12:56:24;;;;;;;6.15;2.00;;;;;;;;;;5013758;28;93708;-74
2023/07/07 12:58:52;;;;;;;2.70;2.33;;;;;;;;;;5013875;28;92505;-74
2023/07/07 13:01:18;;;;;;;4.93;2.63;;;;;;;;;;5016659;28;93252;-74
2023/07/07 13:03:54;;;;;;;3.60;1.95;;;;;;;;;;5013837;28;92442;-74
2023/07/07 13:06:34;;;;;;;5.00;2.83;;;;;;;;;;5012584;28;94130;-74
2023/07/07 13:09:20;;;;;;;10.43;2.80;;;;;;;;;;5017264;28;93791;-74
2023/07/07 13:11:49;;;;;;;4.85;2.40;;;;;;;;;;5017384;28;92738;-74
2023/07/07 13:14:42;;;;;;;4.45;2.25;;;;;;;;;;5017354;28;93703;-74
2023/07/07 13:17:11;;;;;;;3.53;2.10;;;;;;;;;;5013972;28;96027;-74
2023/07/07 13:19:39;;;;;;;5.32;2.17;;;;;;;;;;5017354;28;92475;-74
2023/07/07 13:22:11;;;;;;;5.05;2.45;;;;;;;;;;5020378;28;97236;-74
2023/07/07 13:24:46;;;;;;;4.28;2.13;;;;;;;;;;5017087;28;92609;-74
2023/07/07 13:27:14;;;;;;;4.93;2.33;;;;;;;;;;5015262;28;93714;-74
2023/07/07 13:29:40;;;;;;;3.88;2.50;;;;;;;;;;5016780;28;94007;-74
2023/07/07 13:32:07;;;;;;;7.30;2.28;;;;;;;;;;5016848;28;92473;-74
2023/07/07 13:34:33;;;;;;;4.97;2.00;;;;;;;;;;5017595;28;93309;-74
2023/07/07 13:37:07;;;;;;;5.63;2.30;;;;;;;;;;5016753;28;93550;-74
2023/07/07 13:39:33;;;;;;;3.05;2.25;;;;;;;;;;5016820;28;92459;-74
2023/07/07 13:42:00;;;;;;;4.18;2.25;;;;;;;;;;5015207;28;94769;-74
2023/07/07 13:44:26;;;;;;;7.15;2.53;;;;;;;;;;5019518;28;93531;-74
2023/07/07 13:47:00;;;;;;;7.45;2.70;;;;;;;;;;5016968;28;92388;-74
2023/07/07 13:49:29;;;;;;;4.47;2.15;;;;;;;;;;5016560;28;93873;-74
2023/07/07 13:51:56;;;;;;;2.97;2.22;;;;;;;;;;5016556;28;92694;-74
2023/07/07 13:54:23;;;;;;;4.25;2.33;;;;;;;;;;5016748;28;94222;-74
2023/07/07 13:56:53;;;;;;;7.30;2.20;;;;;;;;;;5016311;28;93966;-74
2023/07/07 13:59:21;;;;;;;7.35;2.35;;;;;;;;;;5017399;28;91729;-74
2023/07/07 14:01:48;;;;;;;5.75;2.58;;;;;;;;;;5016620;28;92757;-74
2023/07/07 14:04:17;;;;;;;5.78;2.50;;;;;;;;;;5016297;28;93422;-74
2023/07/07 14:06:47;;;;;;;7.37;2.73;;;;;;;;;;5017886;28;95233;-74
2023/07/07 14:09:13;;;;;;;;;;;;;;;;;;5016679;28;93536;-74
2023/07/07 14:11:40;;;;;;;7.10;2.47;;;;;;;;;;5016843;28;118434;-74
2023/07/07 14:14:08;;;;;;;4.65;2.50;;;;;;;;;;5016275;28;93197;-74
2023/07/07 14:16:37;;;;;;;4.22;2.75;;;;;;;;;;5016357;28;93081;-74
2023/07/07 14:19:10;;;;;;;3.03;2.40;;;;;;;;;;5014059;28;92800;-74
2023/07/07 14:21:36;;;;;;;3.83;2.45;;;;;;;;;;5015855;28;93213;-74
2023/07/07 14:24:03;;;;;;;5.10;2.53;;;;;;;;;;5016596;28;93208;-74
2023/07/07 14:26:29;;;;;;;5.22;2.35;;;;;;;;;;5014516;28;92717;-74
2023/07/07 14:28:57;;;;;;;8.15;2.83;;;;;;;;;;5019225;28;94306;-74
2023/07/07 14:31:24;;;;;;;6.32;2.80;;;;;;;;;;5014348;28;94987;-74
2023/07/07 14:33:58;;;;;;;7.47;2.70;;;;;;;;;;5015842;28;95614;-75
2023/07/07 14:36:26;;;;;;;5.00;2.90;;;;;;;;;;5014961;28;93618;-74
2023/07/07 14:38:55;;;;;;;5.90;2.70;;;;;;;;;;5016112;28;92780;-75
2023/07/07 14:41:23;;;;;;;3.45;2.60;;;;;;;;;;5015852;28;93203;-74
2023/07/07 14:43:50;;;;;;;4.60;2.72;;;;;;;;;;5015749;28;93452;-74
2023/07/07 14:46:36;;;;;;;3.75;2.15;;;;;;;;;;5013370;28;92451;-75
2023/07/07 14:49:14;;;;;;;4.93;2.50;;;;;;;;;;4996231;28;93614;-75
2023/07/07 14:51:45;;;;;;;5.90;2.53;;;;;;;;;;4998483;28;92466;-74
2023/07/07 14:54:14;;;;;;;7.00;2.63;;;;;;;;;;4995511;28;93553;-74
2023/07/07 14:56:44;;;;;;;6.53;2.60;;;;;;;;;;4993702;28;95883;-75